sensor_id;sensor_type;location;lat;lon;timestamp;pressure;altitude;pressure_sealevel;temperature;humidity
22775;BME280;11554;51.106;3.684;2023-12-20T00:00:00;101885.65999999999;;;4.27;100.0
22775;BME280;11554;51.106;3.684;2023-12-20T00:05:00;101888.4;;;4.20;100.0
22775;BME280;11554;51.106;3.684;2023-12-20T00:10:00;101887.44;;;4.05;100.0
22775;BME280;11554;51.106;3.684;2023-12-20T00:15:00;101886.25;;;3.97;100.0
22775;BME280;11554;51.106;3.684;2023-12-20T00:20:00;101888.26000000001;;;3.99;100.0
22775;BME280;11554;51.106;3.684;2023-12-20T00:25:00;101890.01;;;3.99;100.0
22775;BME280;11554;51.106;3.684;2023-12-20T00:30:00;101882.81;;;4.00;100.0
22775;BME280;11554;51.106;3.684;2023-12-20T00:35:00;101886.63;;;3.94;100.0
22775;BME280;11554;51.106;3.684;2023-12-20T00:40:00;101875.89;;;3.86;100.0
22775;BME280;11554;51.106;3.684;2023-12-20T00:45:00;101871.48999999999;;;3.74;100.0
22775;BME280;11554;51.106;3.684;2023-12-20T00:50:00;101870.22;;;3.64;100.0
22775;BME280;11554;51.106;3.684;2023-12-20T00:55:00;101873.83;;;3.64;100.0
22775;BME280;11554;51.106;3.684;2023-12-20T01:00:00;101886.86;;;3.67;100.0
22775;BME280;11554;51.106;3.684;2023-12-20T01:05:00;101895.98;;;3.71;100.0
22775;BME280;11554;51.106;3.684;2023-12-20T01:10:00;101899.64;;;3.67;100.0
22775;BME280;11554;51.106;3.684;2023-12-20T01:15:00;101908.12;;;3.83;100.0
22775;BME280;11554;51.106;3.684;2023-12-20T01:20:00;101910.78;;;4.03;100.0
22775;BME280;11554;51.106;3.684;2023-12-20T01:25:00;101906.95;;;4.09;100.0
22775;BME280;11554;51.106;3.684;2023-12-20T01:30:00;101908.15;;;4.14;100.0
22775;BME280;11554;51.106;3.684;2023-12-20T01:35:00;101899.43;;;4.19;100.0
22775;BME280;11554;51.106;3.684;2023-12-20T01:40:00;101895.43;;;4.27;100.0
22775;BME280;11554;51.106;3.684;2023-12-20T01:45:00;101898.47;;;4.33;100.0
22775;BME280;11554;51.106;3.684;2023-12-20T01:50:00;101909.04000000001;;;4.36;100.0
22775;BME280;11554;51.106;3.684;2023-12-20T01:55:00;101906.95;;;4.34;100.0
22775;BME280;11554;51.106;3.684;2023-12-20T02:00:00;101905.53;;;4.31;100.0
22775;BME280;11554;51.106;3.684;2023-12-20T02:05:00;101906.61;;;4.37;100.0
22775;BME280;11554;51.106;3.684;2023-12-20T02:10:00;101906.9;;;4.40;100.0
22775;BME280;11554;51.106;3.684;2023-12-20T02:15:00;101899.25;;;4.44;100.0
22775;BME280;11554;51.106;3.684;2023-12-20T02:20:00;101906.94;;;4.55;100.0
22775;BME280;11554;51.106;3.684;2023-12-20T02:25:00;101904.31999999999;;;4.60;100.0
22775;BME280;11554;51.106;3.684;2023-12-20T02:30:00;101910.41;;;4.71;100.0
22775;BME280;11554;51.106;3.684;2023-12-20T02:35:00;101919.2;;;4.75;100.0
22775;BME280;11554;51.106;3.684;2023-12-20T02:40:00;101911.64;;;4.76;100.0
22775;BME280;11554;51.106;3.684;2023-12-20T02:45:00;101905.2;;;4.75;100.0
22775;BME280;11554;51.106;3.684;2023-12-20T02:50:00;101901.15;;;4.76;100.0
22775;BME280;11554;51.106;3.684;2023-12-20T02:55:00;101900.31;;;4.69;100.0
22775;BME280;11554;51.106;3.684;2023-12-20T03:00:00;101893.2;;;4.58;100.0
22775;BME280;11554;51.106;3.684;2023-12-20T03:05:00;101889.78;;;4.61;100.0
22775;BME280;11554;51.106;3.684;2023-12-20T03:10:00;101893.03;;;4.64;100.0
22775;BME280;11554;51.106;3.684;2023-12-20T03:15:00;101892.24;;;4.71;100.0
22775;BME280;11554;51.106;3.684;2023-12-20T03:20:00;101904.49;;;4.63;100.0
22775;BME280;11554;51.106;3.684;2023-12-20T03:25:00;101894.89;;;4.63;100.0
22775;BME280;11554;51.106;3.684;2023-12-20T03:30:00;101895.06;;;4.67;100.0
22775;BME280;11554;51.106;3.684;2023-12-20T03:35:00;101888.97;;;4.70;100.0
22775;BME280;11554;51.106;3.684;2023-12-20T03:40:00;101896.31000000001;;;4.75;100.0
22775;BME280;11554;51.106;3.684;2023-12-20T03:45:00;101897.96;;;4.85;100.0
22775;BME280;11554;51.106;3.684;2023-12-20T03:50:00;101893.81;;;4.94;100.0
22775;BME280;11554;51.106;3.684;2023-12-20T03:55:00;101896.98;;;4.99;100.0
22775;BME280;11554;51.106;3.684;2023-12-20T04:00:00;101883.28;;;5.08;100.0
22775;BME280;11554;51.106;3.684;2023-12-20T04:05:00;101881.47;;;5.17;100.0
22775;BME280;11554;51.106;3.684;2023-12-20T04:10:00;101887.59;;;5.22;100.0
22775;BME280;11554;51.106;3.684;2023-12-20T04:15:00;101898.06999999999;;;5.22;100.0
22775;BME280;11554;51.106;3.684;2023-12-20T04:20:00;101893.97;;;5.21;100.0
22775;BME280;11554;51.106;3.684;2023-12-20T04:25:00;101895.03;;;5.19;100.0
22775;BME280;11554;51.106;3.684;2023-12-20T04:30:00;101896.84;;;5.10;100.0
22775;BME280;11554;51.106;3.684;2023-12-20T04:35:00;101888.67;;;4.98;100.0
22775;BME280;11554;51.106;3.684;2023-12-20T04:40:00;101891.11;;;4.83;100.0
22775;BME280;11554;51.106;3.684;2023-12-20T04:45:00;101887.59;;;4.81;100.0
22775;BME280;11554;51.106;3.684;2023-12-20T04:50:00;101890.32999999999;;;4.75;100.0
22775;BME280;11554;51.106;3.684;2023-12-20T04:55:00;101893.12999999999;;;4.62;100.0
22775;BME280;11554;51.106;3.684;2023-12-20T05:00:00;101893.58;;;4.52;100.0
22775;BME280;11554;51.106;3.684;2023-12-20T05:05:00;101898.36;;;4.50;100.0
22775;BME280;11554;51.106;3.684;2023-12-20T05:10:00;101890.69;;;4.57;100.0
22775;BME280;11554;51.106;3.684;2023-12-20T05:15:00;101885.77;;;4.60;100.0
22775;BME280;11554;51.106;3.684;2023-12-20T05:20:00;101880.3;;;4.56;100.0
22775;BME280;11554;51.106;3.684;2023-12-20T05:25:01;101876.4;;;4.47;100.0
22775;BME280;11554;51.106;3.684;2023-12-20T05:30:00;101878.97;;;4.46;100.0
22775;BME280;11554;51.106;3.684;2023-12-20T05:35:00;101877.39;;;4.49;100.0
22775;BME280;11554;51.106;3.684;2023-12-20T05:40:00;101888.01999999999;;;4.58;100.0
22775;BME280;11554;51.106;3.684;2023-12-20T05:45:00;101881.22;;;4.64;100.0
22775;BME280;11554;51.106;3.684;2023-12-20T05:50:00;101876.29;;;4.63;100.0
22775;BME280;11554;51.106;3.684;2023-12-20T05:55:00;101891.28;;;4.58;100.0
22775;BME280;11554;51.106;3.684;2023-12-20T06:00:00;101892.52;;;4.59;100.0
22775;BME280;11554;51.106;3.684;2023-12-20T06:05:00;101894.51000000001;;;4.49;100.0
22775;BME280;11554;51.106;3.684;2023-12-20T06:10:00;101893.02;;;4.43;100.0
22775;BME280;11554;51.106;3.684;2023-12-20T06:15:00;101889.34000000001;;;4.40;100.0
22775;BME280;11554;51.106;3.684;2023-12-20T06:20:00;101884.05;;;4.44;100.0
22775;BME280;11554;51.106;3.684;2023-12-20T06:25:00;101880.66;;;4.44;100.0
22775;BME280;11554;51.106;3.684;2023-12-20T06:30:00;101878.66;;;4.38;100.0
22775;BME280;11554;51.106;3.684;2023-12-20T06:35:00;101879.61;;;4.37;100.0
22775;BME280;11554;51.106;3.684;2023-12-20T06:40:00;101888.03;;;4.28;100.0
22775;BME280;11554;51.106;3.684;2023-12-20T06:45:00;101890.62;;;4.17;100.0
22775;BME280;11554;51.106;3.684;2023-12-20T06:50:00;101881.62;;;4.03;100.0
22775;BME280;11554;51.106;3.684;2023-12-20T06:55:00;101876.54;;;3.92;100.0
22775;BME280;11554;51.106;3.684;2023-12-20T07:00:00;101866.04999999999;;;3.77;100.0
22775;BME280;11554;51.106;3.684;2023-12-20T07:05:00;101871.03;;;3.65;100.0
22775;BME280;11554;51.106;3.684;2023-12-20T07:10:00;101873.27;;;3.58;100.0
22775;BME280;11554;51.106;3.684;2023-12-20T07:15:00;101871.7;;;3.52;100.0
22775;BME280;11554;51.106;3.684;2023-12-20T07:20:00;101871.92;;;3.46;100.0
22775;BME280;11554;51.106;3.684;2023-12-20T07:25:00;101867.46;;;3.39;100.0
22775;BME280;11554;51.106;3.684;2023-12-20T07:30:00;101869.61;;;3.34;100.0
22775;BME280;11554;51.106;3.684;2023-12-20T07:35:01;101879.40999999999;;;3.37;100.0
22775;BME280;11554;51.106;3.684;2023-12-20T07:40:00;101887.05;;;3.41;100.0
22775;BME280;11554;51.106;3.684;2023-12-20T07:45:00;101899.64;;;3.46;100.0
22775;BME280;11554;51.106;3.684;2023-12-20T07:50:00;101904.83;;;3.43;100.0
22775;BME280;11554;51.106;3.684;2023-12-20T07:55:00;101899.56;;;3.32;100.0
22775;BME280;11554;51.106;3.684;2023-12-20T08:00:00;101898.51999999999;;;3.31;100.0
22775;BME280;11554;51.106;3.684;2023-12-20T08:05:00;101896.69;;;3.27;100.0
22775;BME280;11554;51.106;3.684;2023-12-20T08:10:00;101893.48;;;3.28;100.0
22775;BME280;11554;51.106;3.684;2023-12-20T08:15:01;101904.25;;;3.28;100.0
22775;BME280;11554;51.106;3.684;2023-12-20T08:20:00;101903.57;;;3.33;100.0
22775;BME280;11554;51.106;3.684;2023-12-20T08:25:00;101903.36;;;3.38;100.0
22775;BME280;11554;51.106;3.684;2023-12-20T08:30:00;101898.01999999999;;;3.42;100.0
22775;BME280;11554;51.106;3.684;2023-12-20T08:35:00;101890.32999999999;;;3.44;100.0
22775;BME280;11554;51.106;3.684;2023-12-20T08:40:00;101884.22;;;3.44;100.0
22775;BME280;11554;51.106;3.684;2023-12-20T08:45:00;101889.22;;;3.51;100.0
22775;BME280;11554;51.106;3.684;2023-12-20T08:50:00;101906.2;;;3.74;100.0
22775;BME280;11554;51.106;3.684;2023-12-20T08:55:00;101907.19;;;4.02;100.0
22775;BME280;11554;51.106;3.684;2023-12-20T09:00:00;101919.56;;;4.28;100.0
22775;BME280;11554;51.106;3.684;2023-12-20T09:05:00;101929.04999999999;;;4.53;100.0
22775;BME280;11554;51.106;3.684;2023-12-20T09:10:00;101925.81;;;4.76;100.0
22775;BME280;11554;51.106;3.684;2023-12-20T09:15:00;101915.53;;;4.91;100.0
22775;BME280;11554;51.106;3.684;2023-12-20T09:20:00;101904.83;;;5.04;100.0
22775;BME280;11554;51.106;3.684;2023-12-20T09:25:00;101896.54000000001;;;5.06;100.0
22775;BME280;11554;51.106;3.684;2023-12-20T09:30:00;101894.55;;;5.27;100.0
22775;BME280;11554;51.106;3.684;2023-12-20T09:35:00;101889.08;;;5.51;100.0
22775;BME280;11554;51.106;3.684;2023-12-20T09:40:00;101886.6;;;5.86;100.0
22775;BME280;11554;51.106;3.684;2023-12-20T09:45:00;101885.49;;;6.05;100.0
22775;BME280;11554;51.106;3.684;2023-12-20T09:50:00;101884.09;;;6.10;100.0
22775;BME280;11554;51.106;3.684;2023-12-20T09:55:00;101877.48;;;6.20;100.0
22775;BME280;11554;51.106;3.684;2023-12-20T10:00:00;101870.58;;;6.27;100.0
22775;BME280;11554;51.106;3.684;2023-12-20T10:05:00;101867.18;;;6.35;100.0
22775;BME280;11554;51.106;3.684;2023-12-20T10:10:00;101861.56;;;6.34;100.0
22775;BME280;11554;51.106;3.684;2023-12-20T10:15:00;101862.39;;;6.37;100.0
22775;BME280;11554;51.106;3.684;2023-12-20T10:20:00;101864.04;;;6.35;100.0
22775;BME280;11554;51.106;3.684;2023-12-20T10:25:00;101867.07;;;6.36;100.0
22775;BME280;11554;51.106;3.684;2023-12-20T10:30:00;101861.49;;;6.36;100.0
22775;BME280;11554;51.106;3.684;2023-12-20T10:35:00;101842.97;;;6.40;100.0
22775;BME280;11554;51.106;3.684;2023-12-20T10:40:00;101835.86;;;6.43;100.0
22775;BME280;11554;51.106;3.684;2023-12-20T10:45:00;101840.16;;;6.49;100.0
22775;BME280;11554;51.106;3.684;2023-12-20T10:50:00;101827.59999999999;;;6.54;100.0
22775;BME280;11554;51.106;3.684;2023-12-20T10:55:00;101822.85;;;6.61;100.0
22775;BME280;11554;51.106;3.684;2023-12-20T11:00:01;101820.11;;;6.72;100.0
22775;BME280;11554;51.106;3.684;2023-12-20T11:05:03;101800.42;;;6.82;100.0
22775;BME280;11554;51.106;3.684;2023-12-20T11:10:01;101797.79999999999;;;6.95;100.0
22775;BME280;11554;51.106;3.684;2023-12-20T11:15:00;101797.19;;;7.01;100.0
22775;BME280;11554;51.106;3.684;2023-12-20T11:20:05;101808.06;;;7.07;100.0
22775;BME280;11554;51.106;3.684;2023-12-20T11:25:03;101812.64;;;7.07;100.0
22775;BME280;11554;51.106;3.684;2023-12-20T11:30:02;101798.44;;;7.08;100.0
22775;BME280;11554;51.106;3.684;2023-12-20T11:35:01;101785.16;;;7.12;100.0
22775;BME280;11554;51.106;3.684;2023-12-20T11:40:00;101786.87999999999;;;7.18;100.0
22775;BME280;11554;51.106;3.684;2023-12-20T11:45:01;101773.46;;;7.20;100.0
22775;BME280;11554;51.106;3.684;2023-12-20T11:50:00;101773.87999999999;;;7.23;100.0
22775;BME280;11554;51.106;3.684;2023-12-20T11:55:00;101770.47;;;7.23;100.0
22775;BME280;11554;51.106;3.684;2023-12-20T12:00:00;101763.67;;;7.19;100.0
22775;BME280;11554;51.106;3.684;2023-12-20T12:05:00;101756.53;;;7.19;100.0
22775;BME280;11554;51.106;3.684;2023-12-20T12:10:00;101752.62;;;7.19;100.0
22775;BME280;11554;51.106;3.684;2023-12-20T12:15:00;101754.74;;;7.15;100.0
22775;BME280;11554;51.106;3.684;2023-12-20T12:20:02;101755.24;;;7.16;100.0
22775;BME280;11554;51.106;3.684;2023-12-20T12:25:09;101755.47;;;7.18;100.0
22775;BME280;11554;51.106;3.684;2023-12-20T12:30:01;101748.13;;;7.32;100.0
22775;BME280;11554;51.106;3.684;2023-12-20T12:35:02;101731.84;;;7.50;100.0
22775;BME280;11554;51.106;3.684;2023-12-20T12:40:00;101720.7;;;7.68;100.0
22775;BME280;11554;51.106;3.684;2023-12-20T12:45:00;101707.11;;;7.72;100.0
22775;BME280;11554;51.106;3.684;2023-12-20T12:50:00;101692.74;;;7.66;100.0
22775;BME280;11554;51.106;3.684;2023-12-20T12:55:00;101680.59;;;7.67;100.0
22775;BME280;11554;51.106;3.684;2023-12-20T13:00:00;101677.23;;;7.71;100.0
22775;BME280;11554;51.106;3.684;2023-12-20T13:05:00;101679.38;;;7.73;100.0
22775;BME280;11554;51.106;3.684;2023-12-20T13:10:00;101684.09;;;7.73;100.0
22775;BME280;11554;51.106;3.684;2023-12-20T13:15:00;101683.34999999999;;;7.81;100.0
22775;BME280;11554;51.106;3.684;2023-12-20T13:20:00;101661.33;;;7.92;100.0
22775;BME280;11554;51.106;3.684;2023-12-20T13:25:00;101648.63;;;7.94;100.0
22775;BME280;11554;51.106;3.684;2023-12-20T13:30:00;101637.59;;;7.91;100.0
22775;BME280;11554;51.106;3.684;2023-12-20T13:35:00;101631.86;;;7.88;100.0
22775;BME280;11554;51.106;3.684;2023-12-20T13:40:00;101629.26999999999;;;7.88;100.0
22775;BME280;11554;51.106;3.684;2023-12-20T13:45:00;101620.87;;;7.91;100.0
22775;BME280;11554;51.106;3.684;2023-12-20T13:50:00;101609.05;;;7.90;100.0
22775;BME280;11554;51.106;3.684;2023-12-20T13:55:00;101603.5;;;7.88;100.0
22775;BME280;11554;51.106;3.684;2023-12-20T14:00:00;101578.05;;;7.89;100.0
22775;BME280;11554;51.106;3.684;2023-12-20T14:05:00;101575.89;;;7.90;100.0
22775;BME280;11554;51.106;3.684;2023-12-20T14:10:00;101572.5;;;7.93;100.0
22775;BME280;11554;51.106;3.684;2023-12-20T14:20:00;101560.67;;;7.94;100.0
22775;BME280;11554;51.106;3.684;2023-12-20T14:25:00;101569.24;;;7.93;100.0
22775;BME280;11554;51.106;3.684;2023-12-20T14:30:00;101562.45;;;7.93;100.0
22775;BME280;11554;51.106;3.684;2023-12-20T14:35:00;101565.7;;;7.93;100.0
22775;BME280;11554;51.106;3.684;2023-12-20T14:40:00;101567.66;;;7.91;100.0
22775;BME280;11554;51.106;3.684;2023-12-20T14:45:00;101566.69;;;7.91;100.0
22775;BME280;11554;51.106;3.684;2023-12-20T14:50:00;101569.69;;;7.89;100.0
22775;BME280;11554;51.106;3.684;2023-12-20T14:55:00;101572.17000000001;;;7.87;100.0
22775;BME280;11554;51.106;3.684;2023-12-20T15:00:00;101561.05;;;7.85;100.0
22775;BME280;11554;51.106;3.684;2023-12-20T15:05:00;101564.65;;;7.83;100.0
22775;BME280;11554;51.106;3.684;2023-12-20T15:10:00;101558.77;;;7.78;100.0
22775;BME280;11554;51.106;3.684;2023-12-20T15:15:00;101560.33;;;7.75;100.0
22775;BME280;11554;51.106;3.684;2023-12-20T15:20:00;101568.53;;;7.73;100.0
22775;BME280;11554;51.106;3.684;2023-12-20T15:25:00;101572.16;;;7.72;100.0
22775;BME280;11554;51.106;3.684;2023-12-20T15:30:00;101585.02;;;7.67;100.0
22775;BME280;11554;51.106;3.684;2023-12-20T15:35:00;101579.71;;;7.67;100.0
22775;BME280;11554;51.106;3.684;2023-12-20T15:40:00;101585.51999999999;;;7.68;100.0
22775;BME280;11554;51.106;3.684;2023-12-20T15:45:00;101590.23;;;7.69;100.0
22775;BME280;11554;51.106;3.684;2023-12-20T15:50:00;101585.46;;;7.67;100.0
22775;BME280;11554;51.106;3.684;2023-12-20T15:55:00;101589.28;;;7.66;100.0
22775;BME280;11554;51.106;3.684;2023-12-20T16:00:00;101578.99;;;7.66;100.0
22775;BME280;11554;51.106;3.684;2023-12-20T16:05:00;101578.77;;;7.68;100.0
22775;BME280;11554;51.106;3.684;2023-12-20T16:10:00;101579.6;;;7.65;100.0
22775;BME280;11554;51.106;3.684;2023-12-20T16:15:00;101574.25;;;7.65;100.0
22775;BME280;11554;51.106;3.684;2023-12-20T16:20:00;101566.74;;;7.68;100.0
22775;BME280;11554;51.106;3.684;2023-12-20T16:25:00;101543.15000000001;;;7.63;100.0
22775;BME280;11554;51.106;3.684;2023-12-20T16:30:00;101535.82;;;7.53;100.0
22775;BME280;11554;51.106;3.684;2023-12-20T16:35:00;101539.36;;;7.51;100.0
22775;BME280;11554;51.106;3.684;2023-12-20T16:40:00;101530.84999999999;;;7.51;100.0
22775;BME280;11554;51.106;3.684;2023-12-20T16:45:00;101531.89;;;7.52;100.0
22775;BME280;11554;51.106;3.684;2023-12-20T16:50:00;101523.42;;;7.49;100.0
22775;BME280;11554;51.106;3.684;2023-12-20T16:55:00;101512.75;;;7.48;100.0
22775;BME280;11554;51.106;3.684;2023-12-20T17:00:00;101492.17;;;7.46;100.0
22775;BME280;11554;51.106;3.684;2023-12-20T17:05:00;101478.17;;;7.47;100.0
22775;BME280;11554;51.106;3.684;2023-12-20T17:10:00;101472.99;;;7.42;100.0
22775;BME280;11554;51.106;3.684;2023-12-20T17:15:00;101472.66;;;7.37;100.0
22775;BME280;11554;51.106;3.684;2023-12-20T17:20:00;101478.59;;;7.38;100.0
22775;BME280;11554;51.106;3.684;2023-12-20T17:25:00;101466.90999999999;;;7.39;100.0
22775;BME280;11554;51.106;3.684;2023-12-20T17:30:00;101455.64;;;7.40;100.0
22775;BME280;11554;51.106;3.684;2023-12-20T17:35:00;101450.11;;;7.40;100.0
22775;BME280;11554;51.106;3.684;2023-12-20T17:40:00;101436.63;;;7.40;100.0
22775;BME280;11554;51.106;3.684;2023-12-20T17:45:00;101429.24;;;7.39;100.0
22775;BME280;11554;51.106;3.684;2023-12-20T17:50:00;101414.03;;;7.38;100.0
22775;BME280;11554;51.106;3.684;2023-12-20T17:55:00;101426.53;;;7.38;100.0
22775;BME280;11554;51.106;3.684;2023-12-20T18:00:10;101420.87;;;7.41;100.0
22775;BME280;11554;51.106;3.684;2023-12-20T18:05:00;101407.51000000001;;;7.46;100.0
22775;BME280;11554;51.106;3.684;2023-12-20T18:10:00;101401.28;;;7.44;100.0
22775;BME280;11554;51.106;3.684;2023-12-20T18:15:00;101391.25;;;7.36;100.0
22775;BME280;11554;51.106;3.684;2023-12-20T18:20:01;101397.77;;;7.31;100.0
22775;BME280;11554;51.106;3.684;2023-12-20T18:25:00;101392.62999999999;;;7.31;100.0
22775;BME280;11554;51.106;3.684;2023-12-20T18:30:00;101374.1;;;7.29;100.0
22775;BME280;11554;51.106;3.684;2023-12-20T18:35:00;101380.7;;;7.30;100.0
22775;BME280;11554;51.106;3.684;2023-12-20T18:40:00;101383.39;;;7.36;100.0
22775;BME280;11554;51.106;3.684;2023-12-20T18:45:00;101381.62;;;7.45;100.0
22775;BME280;11554;51.106;3.684;2023-12-20T18:50:00;101375.09;;;7.52;100.0
22775;BME280;11554;51.106;3.684;2023-12-20T18:55:00;101369.16;;;7.53;100.0
22775;BME280;11554;51.106;3.684;2023-12-20T19:00:00;101372.43;;;7.58;100.0
22775;BME280;11554;51.106;3.684;2023-12-20T19:05:00;101367.55;;;7.54;100.0
22775;BME280;11554;51.106;3.684;2023-12-20T19:10:00;101366.74;;;7.44;100.0
22775;BME280;11554;51.106;3.684;2023-12-20T19:15:00;101357.64;;;7.44;100.0
22775;BME280;11554;51.106;3.684;2023-12-20T19:20:00;101356.7;;;7.45;100.0
22775;BME280;11554;51.106;3.684;2023-12-20T19:25:00;101349.36;;;7.49;100.0
22775;BME280;11554;51.106;3.684;2023-12-20T19:30:00;101331.37000000001;;;7.58;100.0
22775;BME280;11554;51.106;3.684;2023-12-20T19:35:00;101329.04;;;7.66;100.0
22775;BME280;11554;51.106;3.684;2023-12-20T19:40:00;101335.02;;;7.71;100.0
22775;BME280;11554;51.106;3.684;2023-12-20T19:45:00;101313.44;;;7.80;100.0
22775;BME280;11554;51.106;3.684;2023-12-20T19:50:00;101301.4;;;7.83;100.0
22775;BME280;11554;51.106;3.684;2023-12-20T19:55:00;101300.51;;;7.86;100.0
22775;BME280;11554;51.106;3.684;2023-12-20T20:00:00;101295.12;;;7.92;100.0
22775;BME280;11554;51.106;3.684;2023-12-20T20:05:00;101285.46;;;7.96;100.0
22775;BME280;11554;51.106;3.684;2023-12-20T20:10:00;101285.99;;;8.03;100.0
22775;BME280;11554;51.106;3.684;2023-12-20T20:15:00;101297.97;;;8.05;100.0
22775;BME280;11554;51.106;3.684;2023-12-20T20:20:00;101307.25;;;8.07;100.0
22775;BME280;11554;51.106;3.684;2023-12-20T20:25:00;101296.18000000001;;;8.11;100.0
22775;BME280;11554;51.106;3.684;2023-12-20T20:30:00;101288.94;;;8.14;100.0
22775;BME280;11554;51.106;3.684;2023-12-20T20:35:00;101277.34;;;8.16;100.0
22775;BME280;11554;51.106;3.684;2023-12-20T20:40:00;101281.45;;;8.18;100.0
22775;BME280;11554;51.106;3.684;2023-12-20T20:45:00;101274.51999999999;;;8.24;100.0
22775;BME280;11554;51.106;3.684;2023-12-20T20:50:00;101263.18;;;8.28;100.0
22775;BME280;11554;51.106;3.684;2023-12-20T20:55:00;101272.97;;;8.33;100.0
22775;BME280;11554;51.106;3.684;2023-12-20T21:00:00;101271.45000000001;;;8.34;100.0
22775;BME280;11554;51.106;3.684;2023-12-20T21:05:00;101271.44;;;8.39;100.0
22775;BME280;11554;51.106;3.684;2023-12-20T21:10:00;101261.97;;;8.41;100.0
22775;BME280;11554;51.106;3.684;2023-12-20T21:15:00;101256.06;;;8.44;100.0
22775;BME280;11554;51.106;3.684;2023-12-20T21:20:00;101240.7;;;8.46;100.0
22775;BME280;11554;51.106;3.684;2023-12-20T21:25:00;101221.64;;;8.49;100.0
22775;BME280;11554;51.106;3.684;2023-12-20T21:30:00;101217.31;;;8.51;100.0
22775;BME280;11554;51.106;3.684;2023-12-20T21:35:00;101210.39;;;8.53;100.0
22775;BME280;11554;51.106;3.684;2023-12-20T21:40:00;101202.09;;;8.57;100.0
22775;BME280;11554;51.106;3.684;2023-12-20T21:45:00;101193.89;;;8.56;100.0
22775;BME280;11554;51.106;3.684;2023-12-20T21:50:00;101177.09;;;8.57;100.0
22775;BME280;11554;51.106;3.684;2023-12-20T21:55:00;101176.28;;;8.56;100.0
22775;BME280;11554;51.106;3.684;2023-12-20T22:00:00;101173.77;;;8.56;100.0
22775;BME280;11554;51.106;3.684;2023-12-20T22:05:00;101173.05;;;8.55;100.0
22775;BME280;11554;51.106;3.684;2023-12-20T22:10:00;101180.55;;;8.57;100.0
22775;BME280;11554;51.106;3.684;2023-12-20T22:15:00;101193.86;;;8.57;100.0
22775;BME280;11554;51.106;3.684;2023-12-20T22:20:00;101165.63;;;8.57;100.0
22775;BME280;11554;51.106;3.684;2023-12-20T22:25:00;101163.51;;;8.57;100.0
22775;BME280;11554;51.106;3.684;2023-12-20T22:30:00;101159.44;;;8.56;100.0
22775;BME280;11554;51.106;3.684;2023-12-20T22:35:00;101139.15;;;8.56;100.0
22775;BME280;11554;51.106;3.684;2023-12-20T22:40:00;101152.19;;;8.56;100.0
22775;BME280;11554;51.106;3.684;2023-12-20T22:45:00;101161.84;;;8.54;100.0
22775;BME280;11554;51.106;3.684;2023-12-20T22:50:00;101162.59999999999;;;8.56;100.0
22775;BME280;11554;51.106;3.684;2023-12-20T22:55:00;101161.72;;;8.55;100.0
22775;BME280;11554;51.106;3.684;2023-12-20T23:00:00;101155.59;;;8.52;100.0
22775;BME280;11554;51.106;3.684;2023-12-20T23:05:00;101167.64;;;8.53;100.0
22775;BME280;11554;51.106;3.684;2023-12-20T23:10:00;101166.76999999999;;;8.53;100.0
22775;BME280;11554;51.106;3.684;2023-12-20T23:15:00;101162.21;;;8.56;100.0
22775;BME280;11554;51.106;3.684;2023-12-20T23:20:00;101150.06;;;8.56;100.0
22775;BME280;11554;51.106;3.684;2023-12-20T23:25:00;101141.8;;;8.58;100.0
22775;BME280;11554;51.106;3.684;2023-12-20T23:30:00;101136.92;;;8.58;100.0
22775;BME280;11554;51.106;3.684;2023-12-20T23:35:00;101127.22;;;8.60;100.0
22775;BME280;11554;51.106;3.684;2023-12-20T23:40:00;101119.17;;;8.60;100.0
22775;BME280;11554;51.106;3.684;2023-12-20T23:45:00;101111.1;;;8.59;100.0
22775;BME280;11554;51.106;3.684;2023-12-20T23:50:00;101092.97;;;8.60;100.0
22775;BME280;11554;51.106;3.684;2023-12-20T23:55:00;101092.48999999999;;;8.61;100.0
